createdAt,value
2022-09-06T00:00:16.775Z,0.00
2022-09-06T00:01:16.765Z,0.00
2022-09-06T00:02:16.779Z,0.00
2022-09-06T00:03:16.747Z,0.00
2022-09-06T00:04:16.806Z,0.00
2022-09-06T00:05:16.721Z,0.00
2022-09-06T00:06:16.710Z,0.00
2022-09-06T00:07:16.700Z,0.00
2022-09-06T00:08:16.687Z,0.00
2022-09-06T00:09:16.697Z,0.00
2022-09-06T00:10:16.666Z,0.00
2022-09-06T00:11:16.656Z,0.00
2022-09-06T00:12:16.644Z,0.00
2022-09-06T00:13:16.635Z,0.00
2022-09-06T00:14:16.625Z,0.00
2022-09-06T00:15:16.628Z,0.00
2022-09-06T00:16:16.708Z,0.00
2022-09-06T00:17:16.591Z,0.00
2022-09-06T00:18:16.584Z,0.00
2022-09-06T00:19:16.567Z,0.00
2022-09-06T00:20:16.563Z,0.00
2022-09-06T00:21:16.574Z,0.00
2022-09-06T00:22:16.538Z,0.00
2022-09-06T00:23:16.531Z,0.00
2022-09-06T00:24:16.512Z,0.00
2022-09-06T00:25:16.502Z,0.00
2022-09-06T00:26:16.490Z,0.00
2022-09-06T00:27:16.485Z,0.00
2022-09-06T00:28:16.469Z,0.00
2022-09-06T00:29:16.457Z,0.00
2022-09-06T00:30:16.450Z,0.00
2022-09-06T00:31:16.572Z,0.00
2022-09-06T00:32:16.424Z,0.00
2022-09-06T00:33:16.434Z,0.00
2022-09-06T00:34:16.402Z,0.00
2022-09-06T00:35:16.392Z,0.00
2022-09-06T00:36:16.383Z,0.00
2022-09-06T00:37:16.370Z,0.00
2022-09-06T00:38:16.359Z,0.00
2022-09-06T00:39:16.354Z,0.00
2022-09-06T00:40:16.340Z,0.00
2022-09-06T00:41:16.325Z,0.00
2022-09-06T00:42:16.317Z,0.00
2022-09-06T00:43:16.309Z,0.00
2022-09-06T00:44:16.293Z,0.00
2022-09-06T00:45:16.288Z,0.00
2022-09-06T00:46:16.338Z,0.00
2022-09-06T00:47:16.263Z,0.00
2022-09-06T00:48:16.250Z,0.00
2022-09-06T00:49:16.239Z,0.00
2022-09-06T00:50:16.231Z,0.00
2022-09-06T00:51:16.248Z,0.00
2022-09-06T00:52:16.205Z,0.00
2022-09-06T00:53:16.197Z,0.00
2022-09-06T00:54:16.184Z,0.00
2022-09-06T00:55:16.176Z,0.00
2022-09-06T00:56:16.161Z,0.00
2022-09-06T00:57:16.168Z,0.00
2022-09-06T00:58:16.142Z,0.00
2022-09-06T00:59:16.142Z,0.00
2022-09-06T01:00:16.118Z,0.00
2022-09-06T01:01:16.240Z,0.00
2022-09-06T01:02:16.235Z,0.00
2022-09-06T01:03:16.091Z,0.00
2022-09-06T01:04:16.075Z,0.00
2022-09-06T01:05:16.064Z,0.00
2022-09-06T01:06:16.052Z,0.00
2022-09-06T01:07:16.042Z,0.00
2022-09-06T01:08:16.032Z,0.00
2022-09-06T01:09:16.025Z,0.00
2022-09-06T01:10:16.008Z,0.00
2022-09-06T01:11:16.000Z,0.00
2022-09-06T01:12:15.986Z,0.00
2022-09-06T01:13:15.980Z,0.00
2022-09-06T01:14:15.965Z,0.00
2022-09-06T01:15:15.977Z,0.00
2022-09-06T01:16:16.005Z,0.00
2022-09-06T01:17:15.932Z,0.00
2022-09-06T01:18:15.921Z,0.00
2022-09-06T01:19:15.910Z,0.00
2022-09-06T01:20:15.900Z,0.00
2022-09-06T01:21:15.919Z,0.00
2022-09-06T01:22:15.878Z,0.00
2022-09-06T01:23:15.866Z,0.00
2022-09-06T01:24:15.858Z,0.00
2022-09-06T01:25:15.844Z,0.00
2022-09-06T01:26:15.834Z,0.00
2022-09-06T01:27:15.838Z,0.00
2022-09-06T01:28:15.812Z,0.00
2022-09-06T01:29:15.800Z,0.00
2022-09-06T01:30:15.797Z,0.00
2022-09-06T01:31:15.846Z,0.00
2022-09-06T01:32:15.767Z,0.00
2022-09-06T01:33:15.763Z,0.00
2022-09-06T01:34:15.746Z,0.00
2022-09-06T01:35:15.736Z,0.00
2022-09-06T01:36:15.723Z,0.00
2022-09-06T01:37:15.716Z,0.00
2022-09-06T01:38:15.702Z,0.00
2022-09-06T01:39:15.713Z,0.00
2022-09-06T01:40:15.684Z,0.00
2022-09-06T01:41:15.669Z,0.00
2022-09-06T01:42:15.658Z,0.00
2022-09-06T01:43:15.650Z,0.00
2022-09-06T01:44:15.638Z,0.00
2022-09-06T01:45:15.632Z,0.00
2022-09-06T01:46:15.709Z,0.00
2022-09-06T01:47:15.606Z,0.00
2022-09-06T01:48:15.598Z,0.00
2022-09-06T01:49:15.581Z,0.00
2022-09-06T01:50:15.570Z,0.00
2022-09-06T01:51:15.566Z,0.00
2022-09-06T01:52:15.548Z,0.00
2022-09-06T01:53:15.537Z,0.00
2022-09-06T01:54:15.528Z,0.00
2022-09-06T01:55:15.515Z,0.00
2022-09-06T01:56:15.505Z,0.00
2022-09-06T01:57:15.525Z,0.00
2022-09-06T01:58:15.484Z,0.00
2022-09-06T01:59:15.473Z,0.00
2022-09-06T02:00:15.461Z,0.00
2022-09-06T02:01:15.471Z,0.00
2022-09-06T02:02:15.496Z,0.00
2022-09-06T02:03:15.435Z,0.00
2022-09-06T02:04:15.417Z,0.00
2022-09-06T02:05:15.406Z,0.00
2022-09-06T02:06:15.395Z,0.00
2022-09-06T02:07:15.388Z,0.00
2022-09-06T02:08:15.373Z,0.00
2022-09-06T02:09:15.378Z,0.00
2022-09-06T02:10:15.350Z,0.00
2022-09-06T02:11:15.342Z,0.00
2022-09-06T02:12:15.328Z,0.00
2022-09-06T02:13:15.317Z,0.00
2022-09-06T02:14:15.306Z,0.00
2022-09-06T02:15:15.336Z,0.00
2022-09-06T02:16:15.339Z,0.00
2022-09-06T02:17:15.274Z,0.00
2022-09-06T02:18:15.266Z,0.00
2022-09-06T02:19:15.257Z,0.00
2022-09-06T02:20:15.241Z,0.00
2022-09-06T02:21:15.239Z,0.00
2022-09-06T02:22:15.220Z,0.00
2022-09-06T02:23:15.209Z,0.00
2022-09-06T02:24:15.204Z,0.00
2022-09-06T02:25:15.191Z,0.00
2022-09-06T02:26:15.175Z,0.00
2022-09-06T02:27:15.173Z,0.00
2022-09-06T02:28:15.155Z,0.00
2022-09-06T02:29:15.144Z,0.00
2022-09-06T02:30:15.133Z,0.00
2022-09-06T02:31:15.167Z,0.00
2022-09-06T02:32:15.110Z,0.00
2022-09-06T02:33:15.129Z,0.00
2022-09-06T02:34:15.090Z,0.00
2022-09-06T02:35:15.077Z,0.00
2022-09-06T02:36:15.067Z,0.00
2022-09-06T02:37:15.055Z,0.00
2022-09-06T02:38:15.044Z,0.00
2022-09-06T02:39:15.054Z,0.00
2022-09-06T02:40:15.022Z,0.00
2022-09-06T02:41:15.014Z,0.00
2022-09-06T02:42:15.000Z,0.00
2022-09-06T02:43:14.990Z,0.00
2022-09-06T02:44:14.982Z,0.00
2022-09-06T02:45:14.974Z,0.00
2022-09-06T02:46:15.016Z,0.00
2022-09-06T02:47:14.946Z,0.00
2022-09-06T02:48:14.934Z,0.00
2022-09-06T02:49:14.925Z,0.00
2022-09-06T02:50:14.913Z,0.00
2022-09-06T02:51:14.922Z,0.00
2022-09-06T02:52:14.895Z,0.00
2022-09-06T02:53:14.881Z,0.00
2022-09-06T02:54:14.870Z,0.00
2022-09-06T02:55:14.862Z,0.00
2022-09-06T02:56:14.848Z,0.00
2022-09-06T02:57:14.842Z,0.00
2022-09-06T02:58:14.826Z,0.00
2022-09-06T02:59:14.815Z,0.00
2022-09-06T03:00:14.805Z,0.00
2022-09-06T03:01:14.852Z,0.00
2022-09-06T03:02:14.822Z,0.00
2022-09-06T03:03:14.778Z,0.00
2022-09-06T03:04:14.763Z,0.00
2022-09-06T03:05:14.751Z,0.00
2022-09-06T03:06:14.744Z,0.00
2022-09-06T03:07:14.728Z,0.00
2022-09-06T03:08:14.716Z,0.00
2022-09-06T03:09:14.711Z,0.00
2022-09-06T03:10:14.696Z,0.00
2022-09-06T03:11:14.682Z,0.00
2022-09-06T03:12:14.673Z,0.00
2022-09-06T03:13:14.661Z,0.00
2022-09-06T03:14:14.650Z,0.00
2022-09-06T03:15:14.655Z,0.00
2022-09-06T03:16:14.690Z,0.00
2022-09-06T03:17:14.617Z,0.00
2022-09-06T03:18:14.606Z,0.00
2022-09-06T03:19:14.597Z,0.00
2022-09-06T03:20:14.585Z,0.00
2022-09-06T03:21:14.620Z,0.00
2022-09-06T03:22:14.567Z,0.00
2022-09-06T03:23:14.551Z,0.00
2022-09-06T03:24:14.543Z,0.00
2022-09-06T03:25:14.529Z,0.00
2022-09-06T03:26:14.521Z,0.00
2022-09-06T03:27:14.538Z,0.00
2022-09-06T03:28:14.499Z,0.00
2022-09-06T03:29:14.489Z,0.00
2022-09-06T03:30:14.480Z,0.00
2022-09-06T03:31:14.549Z,0.00
2022-09-06T03:32:14.454Z,0.00
2022-09-06T03:33:14.448Z,0.00
2022-09-06T03:34:14.431Z,0.00
2022-09-06T03:35:14.423Z,0.00
2022-09-06T03:36:14.414Z,0.00
2022-09-06T03:37:14.398Z,0.00
2022-09-06T03:38:14.388Z,0.00
2022-09-06T03:39:14.383Z,0.00
2022-09-06T03:40:14.367Z,0.00
2022-09-06T03:41:14.356Z,0.00
2022-09-06T03:42:14.343Z,0.00
2022-09-06T03:43:14.333Z,0.00
2022-09-06T03:44:14.323Z,0.00
2022-09-06T03:45:14.347Z,0.00
2022-09-06T03:46:14.398Z,0.00
2022-09-06T03:47:18.771Z,0.00
2022-09-06T03:48:15.276Z,0.00
2022-09-06T03:49:14.267Z,0.00
2022-09-06T03:50:14.256Z,0.00
2022-09-06T03:51:14.250Z,0.00
2022-09-06T03:52:14.235Z,0.00
2022-09-06T03:53:14.222Z,0.00
2022-09-06T03:54:14.213Z,0.00
2022-09-06T03:55:14.201Z,0.00
2022-09-06T03:56:14.193Z,0.00
2022-09-06T03:57:14.196Z,0.00
2022-09-06T03:58:14.177Z,0.00
2022-09-06T03:59:14.157Z,0.00
2022-09-06T04:00:14.148Z,0.00
2022-09-06T04:01:14.239Z,0.00
2022-09-06T04:02:14.213Z,0.00
2022-09-06T04:03:14.120Z,0.00
2022-09-06T04:04:14.103Z,0.00
2022-09-06T04:05:14.092Z,0.00
2022-09-06T04:06:14.082Z,0.00
2022-09-06T04:07:14.071Z,0.00
2022-09-06T04:08:14.060Z,0.00
2022-09-06T04:09:14.055Z,0.00
2022-09-06T04:10:14.036Z,0.00
2022-09-06T04:11:14.028Z,0.00
2022-09-06T04:12:14.016Z,0.00
2022-09-06T04:13:14.003Z,0.00
2022-09-06T04:14:13.993Z,0.00
2022-09-06T04:15:13.991Z,0.00
2022-09-06T04:16:14.074Z,0.00
2022-09-06T04:17:13.961Z,0.00
2022-09-06T04:18:13.951Z,0.00
2022-09-06T04:19:13.939Z,0.00
2022-09-06T04:20:13.930Z,0.00
2022-09-06T04:21:13.926Z,0.00
2022-09-06T04:22:13.914Z,0.00
2022-09-06T04:23:13.898Z,0.00
2022-09-06T04:24:13.883Z,0.00
2022-09-06T04:25:13.894Z,0.00
2022-09-06T04:26:13.861Z,0.00
2022-09-06T04:27:13.896Z,0.00
2022-09-06T04:28:13.842Z,0.00
2022-09-06T04:29:13.833Z,0.00
2022-09-06T04:30:13.820Z,0.00
2022-09-06T04:32:39.851Z,0.00
2022-09-06T04:33:39.767Z,0.00
2022-09-06T04:34:39.756Z,0.00
2022-09-06T04:35:39.745Z,0.00
2022-09-06T04:36:39.734Z,0.00
2022-09-06T04:37:39.729Z,0.00
2022-09-06T04:38:39.733Z,0.00
2022-09-06T04:39:39.726Z,0.00
2022-09-06T04:40:39.691Z,0.00
2022-09-06T04:41:39.688Z,0.00
2022-09-06T04:42:39.669Z,0.00
2022-09-06T04:43:39.659Z,0.00
2022-09-06T04:44:39.655Z,0.00
2022-09-06T04:45:39.739Z,0.00
2022-09-06T04:46:39.626Z,0.00
2022-09-06T04:47:39.616Z,0.00
2022-09-06T04:48:39.602Z,0.00
2022-09-06T04:49:39.592Z,0.00
2022-09-06T04:50:39.588Z,0.00
2022-09-06T04:51:39.587Z,0.00
2022-09-06T04:52:39.567Z,5.62
2022-09-06T04:53:39.551Z,5.62
2022-09-06T04:54:39.538Z,5.62
2022-09-06T04:55:39.530Z,5.62
2022-09-06T04:56:39.545Z,5.62
2022-09-06T04:57:43.750Z,5.62
2022-09-06T04:58:40.492Z,5.62
2022-09-06T04:59:39.482Z,5.62
2022-09-06T05:00:39.492Z,5.62
2022-09-06T05:01:39.461Z,5.62
2022-09-06T05:02:39.524Z,5.62
2022-09-06T05:03:39.441Z,5.62
2022-09-06T05:04:39.429Z,5.62
2022-09-06T05:05:39.420Z,5.62
2022-09-06T05:06:39.409Z,5.62
2022-09-06T05:07:39.399Z,5.62
2022-09-06T05:08:39.404Z,5.62
2022-09-06T05:09:39.373Z,5.62
2022-09-06T05:10:39.364Z,5.62
2022-09-06T05:11:39.358Z,5.62
2022-09-06T05:12:43.573Z,5.62
2022-09-06T05:13:40.335Z,5.62
2022-09-06T05:14:39.318Z,5.62
2022-09-06T05:15:39.307Z,5.62
2022-09-06T05:16:39.384Z,5.62
2022-09-06T05:17:39.286Z,5.62
2022-09-06T05:18:39.274Z,5.62
2022-09-06T05:19:39.271Z,5.62
2022-09-06T05:20:39.257Z,11.25
2022-09-06T05:21:39.242Z,11.25
2022-09-06T05:22:39.234Z,11.25
2022-09-06T05:23:39.221Z,11.25
2022-09-06T05:24:39.209Z,11.25
2022-09-06T05:25:39.206Z,11.25
2022-09-06T05:26:39.190Z,11.25
2022-09-06T05:27:39.179Z,11.25
2022-09-06T05:28:39.166Z,11.25
2022-09-06T05:29:39.155Z,11.25
2022-09-06T05:30:39.147Z,11.25
2022-09-06T05:31:39.282Z,11.25
2022-09-06T05:32:39.122Z,11.25
2022-09-06T05:33:39.110Z,11.25
2022-09-06T05:34:39.102Z,11.25
2022-09-06T05:35:39.092Z,11.25
2022-09-06T05:36:39.078Z,11.25
2022-09-06T05:37:39.073Z,11.25
2022-09-06T05:38:39.057Z,11.25
2022-09-06T05:39:39.093Z,11.25
2022-09-06T05:40:39.033Z,11.25
2022-09-06T05:41:39.023Z,11.25
2022-09-06T05:42:39.014Z,11.25
2022-09-06T05:43:39.009Z,11.25
2022-09-06T05:44:38.989Z,11.25
2022-09-06T05:45:39.034Z,11.25
2022-09-06T05:46:38.968Z,11.25
2022-09-06T05:47:38.958Z,11.25
2022-09-06T05:48:39.009Z,11.25
2022-09-06T05:49:38.941Z,11.25
2022-09-06T05:50:38.924Z,11.25
2022-09-06T05:51:38.914Z,11.25
2022-09-06T05:52:38.903Z,11.25
2022-09-06T05:53:38.892Z,11.25
2022-09-06T05:54:38.880Z,11.25
2022-09-06T05:55:42.725Z,16.88
2022-09-06T05:56:38.858Z,16.88
2022-09-06T05:57:38.848Z,16.88
2022-09-06T05:58:38.837Z,16.88
2022-09-06T05:59:38.825Z,16.88
2022-09-06T06:00:38.814Z,16.88
2022-09-06T06:01:38.874Z,16.88
2022-09-06T06:02:38.848Z,16.88
2022-09-06T06:03:38.782Z,16.88
2022-09-06T06:04:38.771Z,16.88
2022-09-06T06:05:38.760Z,16.88
2022-09-06T06:06:38.749Z,16.88
2022-09-06T06:07:38.743Z,16.88
2022-09-06T06:08:38.727Z,16.88
2022-09-06T06:09:38.717Z,16.88
2022-09-06T06:10:38.811Z,16.88
2022-09-06T06:11:38.694Z,16.88
2022-09-06T06:12:38.682Z,16.88
2022-09-06T06:13:38.693Z,16.88
2022-09-06T06:14:38.662Z,16.88
2022-09-06T06:15:38.654Z,16.88
2022-09-06T06:16:38.745Z,16.88
2022-09-06T06:17:38.629Z,16.88
2022-09-06T06:18:38.682Z,16.88
2022-09-06T06:19:38.613Z,16.88
2022-09-06T06:20:38.598Z,22.50
2022-09-06T06:21:38.584Z,22.50
2022-09-06T06:22:38.576Z,22.50
2022-09-06T06:23:38.562Z,22.50
2022-09-06T06:24:38.551Z,22.50
2022-09-06T06:25:38.548Z,22.50
2022-09-06T06:26:38.529Z,22.50
2022-09-06T06:27:38.519Z,22.50
2022-09-06T06:28:38.508Z,22.50
2022-09-06T06:29:38.500Z,22.50
2022-09-06T06:30:38.486Z,22.50
2022-09-06T06:31:38.585Z,22.50
2022-09-06T06:32:38.466Z,22.50
2022-09-06T06:33:38.453Z,22.50
2022-09-06T06:34:38.443Z,22.50
2022-09-06T06:35:40.224Z,22.50
2022-09-06T06:36:38.424Z,22.50
2022-09-06T06:37:38.439Z,22.50
2022-09-06T06:38:38.398Z,22.50
2022-09-06T06:39:38.500Z,22.50
2022-09-06T06:40:38.378Z,22.50
2022-09-06T06:41:38.368Z,22.50
2022-09-06T06:42:38.355Z,28.12
2022-09-06T06:43:38.355Z,28.12
2022-09-06T06:44:38.333Z,28.12
2022-09-06T06:45:38.359Z,28.12
2022-09-06T06:46:38.312Z,33.75
2022-09-06T06:47:38.303Z,33.75
2022-09-06T06:48:38.290Z,33.75
2022-09-06T06:49:38.292Z,33.75
2022-09-06T06:50:38.268Z,28.12
2022-09-06T06:51:38.258Z,28.12
2022-09-06T06:52:38.246Z,28.12
2022-09-06T06:53:38.234Z,28.12
2022-09-06T06:54:38.227Z,28.12
2022-09-06T06:55:38.240Z,28.12
2022-09-06T06:56:38.218Z,28.12
2022-09-06T06:57:38.190Z,28.12
2022-09-06T06:58:38.180Z,28.12
2022-09-06T06:59:38.174Z,28.12
2022-09-06T07:00:38.200Z,28.12
2022-09-06T07:01:38.273Z,28.12
2022-09-06T07:02:38.137Z,28.12
2022-09-06T07:03:38.126Z,28.12
2022-09-06T07:04:38.115Z,28.12
2022-09-06T07:07:41.014Z,33.75
2022-09-06T07:08:38.073Z,33.75
2022-09-06T07:10:39.052Z,33.75
2022-09-06T07:11:38.038Z,33.75
2022-09-06T07:12:38.032Z,33.75
2022-09-06T07:13:38.016Z,33.75
2022-09-06T07:14:38.005Z,33.75
2022-09-06T07:15:38.001Z,33.75
2022-09-06T07:16:38.048Z,33.75
2022-09-06T07:17:37.972Z,33.75
2022-09-06T07:18:37.966Z,33.75
2022-09-06T07:21:39.088Z,33.75
2022-09-06T07:22:37.921Z,33.75
2022-09-06T07:24:38.914Z,33.75
2022-09-06T07:25:37.887Z,33.75
2022-09-06T07:26:38.499Z,33.75
2022-09-06T07:28:38.852Z,33.75
2022-09-06T07:29:37.843Z,33.75
2022-09-06T07:30:37.839Z,33.75
2022-09-06T07:32:38.809Z,33.75
2022-09-06T07:33:37.801Z,33.75
2022-09-06T07:34:37.791Z,33.75
2022-09-06T07:35:37.775Z,33.75
2022-09-06T07:36:37.777Z,33.75
2022-09-06T07:37:37.758Z,33.75
2022-09-06T07:38:37.746Z,33.75
2022-09-06T07:39:37.786Z,33.75
2022-09-06T07:40:37.719Z,39.38
2022-09-06T07:41:37.709Z,39.38
2022-09-06T07:42:37.731Z,39.38
2022-09-06T07:43:37.691Z,39.38
2022-09-06T07:44:37.678Z,39.38
2022-09-06T07:45:37.666Z,45.00
2022-09-06T07:46:37.752Z,45.00
2022-09-06T07:48:38.637Z,45.00
2022-09-06T07:49:37.866Z,45.00
2022-09-06T07:50:55.867Z,45.00
2022-09-06T07:51:38.598Z,45.00
2022-09-06T07:53:08.352Z,45.00
2022-09-06T07:53:38.579Z,45.00
2022-09-06T07:54:37.574Z,45.00
2022-09-06T07:55:37.558Z,45.00
2022-09-06T07:56:37.545Z,45.00
2022-09-06T07:57:37.537Z,45.00
2022-09-06T07:58:37.526Z,45.00
2022-09-06T07:59:41.190Z,45.00
2022-09-06T08:00:38.579Z,45.00
2022-09-06T08:01:37.490Z,45.00
2022-09-06T08:02:37.484Z,50.62
2022-09-06T08:03:37.471Z,50.62
2022-09-06T08:04:37.461Z,50.62
2022-09-06T08:07:38.571Z,50.62
2022-09-06T08:09:38.404Z,50.62
2022-09-06T08:10:37.393Z,50.62
2022-09-06T08:11:37.381Z,50.62
2022-09-06T08:12:37.379Z,50.62
2022-09-06T08:13:37.370Z,50.62
2022-09-06T08:14:37.349Z,50.62
2022-09-06T08:15:41.120Z,56.25
2022-09-06T08:16:37.408Z,56.25
2022-09-06T08:17:37.318Z,56.25
2022-09-06T08:18:37.343Z,56.25
2022-09-06T08:19:37.295Z,56.25
2022-09-06T08:20:37.289Z,56.25
2022-09-06T08:21:37.278Z,56.25
2022-09-06T08:22:37.261Z,56.25
2022-09-06T08:23:37.251Z,56.25
2022-09-06T08:24:37.246Z,50.62
2022-09-06T08:25:37.235Z,50.62
2022-09-06T08:26:37.218Z,50.62
2022-09-06T08:27:37.206Z,50.62
2022-09-06T08:28:37.196Z,50.62
2022-09-06T08:29:37.184Z,50.62
2022-09-06T08:30:37.179Z,50.62
2022-09-06T08:31:37.228Z,50.62
2022-09-06T08:32:37.161Z,50.62
2022-09-06T08:33:37.140Z,50.62
2022-09-06T08:34:37.131Z,50.62
2022-09-06T08:35:37.122Z,56.25
2022-09-06T08:36:37.119Z,56.25
2022-09-06T08:37:37.097Z,61.88
2022-09-06T08:38:37.085Z,61.88
2022-09-06T08:39:37.188Z,61.88
2022-09-06T08:40:37.064Z,56.25
2022-09-06T08:41:37.053Z,61.88
2022-09-06T08:42:37.068Z,56.25
2022-09-06T08:43:37.032Z,56.25
2022-09-06T08:45:38.012Z,56.25
2022-09-06T08:46:37.076Z,56.25
2022-09-06T08:47:36.990Z,56.25
2022-09-06T08:48:37.002Z,56.25
2022-09-06T08:49:36.967Z,50.62
2022-09-06T08:50:36.957Z,50.62
2022-09-06T08:51:38.621Z,56.25
2022-09-06T08:52:41.794Z,56.25
2022-09-06T08:53:37.929Z,61.88
2022-09-06T08:54:36.912Z,61.88
2022-09-06T08:55:36.901Z,61.88
2022-09-06T08:56:36.890Z,61.88
2022-09-06T08:57:40.073Z,61.88
2022-09-06T08:58:36.869Z,67.50
2022-09-06T08:59:36.862Z,73.12
2022-09-06T09:00:36.884Z,78.75
2022-09-06T09:01:36.893Z,78.75
2022-09-06T09:02:36.824Z,73.12
2022-09-06T09:03:36.842Z,73.12
2022-09-06T09:04:36.803Z,67.50
2022-09-06T09:05:36.806Z,67.50
2022-09-06T09:06:36.781Z,67.50
2022-09-06T09:07:36.770Z,67.50
2022-09-06T09:08:36.763Z,67.50
2022-09-06T09:09:36.748Z,67.50
2022-09-06T09:10:36.736Z,67.50
2022-09-06T09:11:36.731Z,61.88
2022-09-06T09:12:36.714Z,61.88
2022-09-06T09:13:36.703Z,61.88
2022-09-06T09:14:36.694Z,61.88
2022-09-06T09:15:40.242Z,61.88
2022-09-06T09:16:36.748Z,61.88
2022-09-06T09:17:36.667Z,61.88
2022-09-06T09:18:36.648Z,67.50
2022-09-06T09:19:36.652Z,67.50
2022-09-06T09:20:36.627Z,67.50
2022-09-06T09:21:36.616Z,67.50
2022-09-06T09:22:36.605Z,73.12
2022-09-06T09:23:36.600Z,67.50
2022-09-06T09:24:36.586Z,67.50
2022-09-06T09:25:36.573Z,61.88
2022-09-06T09:26:36.562Z,61.88
2022-09-06T09:27:36.551Z,61.88
2022-09-06T09:28:36.540Z,61.88
2022-09-06T09:29:36.575Z,67.50
2022-09-06T09:30:51.985Z,67.50
2022-09-06T09:31:37.571Z,73.12
2022-09-06T09:32:36.498Z,73.12
2022-09-06T09:33:36.486Z,73.12
2022-09-06T09:34:36.478Z,73.12
2022-09-06T09:35:36.470Z,78.75
2022-09-06T09:36:36.454Z,78.75
2022-09-06T09:37:55.375Z,78.75
2022-09-06T09:38:37.437Z,78.75
2022-09-06T09:39:36.463Z,78.75
2022-09-06T09:40:36.408Z,73.12
2022-09-06T09:41:36.402Z,73.12
2022-09-06T09:42:36.387Z,73.12
2022-09-06T09:43:36.375Z,73.12
2022-09-06T09:44:36.366Z,73.12
2022-09-06T09:45:36.353Z,73.12
2022-09-06T09:46:36.434Z,73.12
2022-09-06T09:47:36.355Z,73.12
2022-09-06T09:48:36.322Z,73.12
2022-09-06T09:49:36.313Z,73.12
2022-09-06T09:50:36.303Z,73.12
2022-09-06T09:51:36.292Z,78.75
2022-09-06T09:52:36.277Z,73.12
2022-09-06T09:53:36.274Z,73.12
2022-09-06T09:54:36.256Z,73.12
2022-09-06T09:55:36.245Z,67.50
2022-09-06T09:56:36.240Z,61.88
2022-09-06T09:57:36.224Z,61.88
2022-09-06T09:58:36.222Z,61.88
2022-09-06T09:59:36.206Z,56.25
2022-09-06T10:00:36.312Z,56.25
2022-09-06T10:01:36.182Z,56.25
2022-09-06T10:02:36.172Z,56.25
2022-09-06T10:04:44.963Z,56.25
2022-09-06T10:05:37.136Z,56.25
2022-09-06T10:07:37.114Z,61.88
2022-09-06T10:08:36.118Z,61.88
2022-09-06T10:09:36.091Z,67.50
2022-09-06T10:10:36.092Z,67.50
2022-09-06T10:11:36.073Z,73.12
2022-09-06T10:12:36.061Z,78.75
2022-09-06T10:13:36.050Z,84.38
2022-09-06T10:14:36.039Z,84.38
2022-09-06T10:15:36.028Z,78.75
2022-09-06T10:16:36.120Z,73.12
2022-09-06T10:17:36.011Z,73.12
2022-09-06T10:18:35.999Z,67.50
2022-09-06T10:19:35.992Z,56.25
2022-09-06T10:20:35.974Z,50.62
2022-09-06T10:21:35.962Z,50.62
2022-09-06T10:22:35.958Z,45.00
2022-09-06T10:24:36.932Z,45.00
2022-09-06T10:25:35.921Z,45.00
2022-09-06T10:26:35.909Z,45.00
2022-09-06T10:27:36.082Z,39.38
2022-09-06T10:28:35.892Z,39.38
2022-09-06T10:29:35.876Z,39.38
2022-09-06T10:30:35.863Z,39.38
2022-09-06T10:31:35.900Z,39.38
2022-09-06T10:32:35.858Z,39.38
2022-09-06T10:33:35.831Z,39.38
2022-09-06T10:34:35.826Z,39.38
2022-09-06T10:35:35.810Z,39.38
2022-09-06T10:36:35.799Z,39.38
2022-09-06T10:37:35.787Z,39.38
2022-09-06T10:38:35.777Z,39.38
2022-09-06T10:39:35.824Z,39.38
2022-09-06T10:40:35.791Z,39.38
2022-09-06T10:41:35.743Z,39.38
2022-09-06T10:42:35.736Z,39.38
2022-09-06T10:43:35.722Z,39.38
2022-09-06T10:44:35.710Z,39.38
2022-09-06T10:45:35.699Z,45.00
2022-09-06T10:46:35.761Z,45.00
2022-09-06T10:47:35.681Z,45.00
2022-09-06T10:48:35.671Z,45.00
2022-09-06T10:49:35.659Z,50.62
2022-09-06T10:50:35.646Z,50.62
2022-09-06T10:51:35.634Z,50.62
2022-09-06T10:52:35.659Z,56.25
2022-09-06T10:53:35.612Z,56.25
2022-09-06T10:54:35.601Z,61.88
2022-09-06T10:55:35.592Z,61.88
2022-09-06T10:56:35.584Z,67.50
2022-09-06T10:59:37.725Z,78.75
2022-09-06T11:00:35.537Z,84.38
2022-09-06T11:01:35.593Z,90.00
2022-09-06T11:02:35.921Z,101.25
2022-09-06T11:06:35.471Z,123.75
2022-09-06T11:07:35.703Z,129.38
2022-09-06T11:08:53.281Z,135.00
2022-09-06T11:09:36.439Z,135.00
2022-09-06T11:10:35.434Z,129.38
2022-09-06T11:11:35.417Z,129.38
2022-09-06T11:12:35.407Z,135.00
2022-09-06T11:13:35.396Z,140.62
2022-09-06T11:14:35.387Z,157.50
2022-09-06T11:15:35.410Z,191.25
2022-09-06T11:16:35.385Z,225.00
2022-09-06T11:17:35.354Z,225.00
2022-09-06T11:18:35.345Z,213.75
2022-09-06T11:19:35.334Z,225.00
2022-09-06T11:20:35.319Z,382.50
2022-09-06T11:21:35.308Z,298.12
2022-09-06T11:22:35.313Z,315.00
2022-09-06T11:23:35.288Z,348.75
2022-09-06T11:24:35.276Z,585.00
2022-09-06T11:25:35.268Z,556.88
2022-09-06T11:26:35.256Z,511.88
2022-09-06T11:27:35.246Z,427.50
2022-09-06T11:28:35.241Z,354.38
2022-09-06T11:29:35.221Z,258.75
2022-09-06T11:30:35.211Z,168.75
2022-09-06T11:32:36.187Z,78.75
2022-09-06T11:33:35.180Z,67.50
2022-09-06T11:34:35.175Z,73.12
2022-09-06T11:35:35.156Z,73.12
2022-09-06T11:36:35.146Z,84.38
2022-09-06T11:37:35.139Z,84.38
2022-09-06T11:38:35.124Z,84.38
2022-09-06T11:40:36.110Z,56.25
2022-09-06T11:41:35.091Z,50.62
2022-09-06T11:42:35.080Z,50.62
2022-09-06T11:43:35.071Z,45.00
2022-09-06T11:44:35.059Z,45.00
2022-09-06T11:45:35.049Z,39.38
2022-09-06T11:46:35.126Z,39.38
2022-09-06T11:47:35.030Z,39.38
2022-09-06T11:48:35.048Z,39.38
2022-09-06T11:49:35.006Z,39.38
2022-09-06T11:50:34.995Z,39.38
2022-09-06T11:51:34.986Z,39.38
2022-09-06T11:52:34.978Z,39.38
2022-09-06T11:53:34.963Z,39.38
2022-09-06T11:54:34.952Z,39.38
2022-09-06T11:55:34.940Z,39.38
2022-09-06T11:56:34.931Z,39.38
2022-09-06T11:57:34.919Z,39.38
2022-09-06T11:58:34.929Z,39.38
2022-09-06T11:59:34.897Z,39.38
2022-09-06T12:00:34.889Z,39.38
2022-09-06T12:01:34.875Z,39.38
2022-09-06T12:02:34.992Z,39.38
2022-09-06T12:04:35.850Z,39.38
2022-09-06T12:05:34.834Z,45.00
2022-09-06T12:06:34.822Z,45.00
2022-09-06T12:07:34.809Z,45.00
2022-09-06T12:08:34.799Z,45.00
2022-09-06T12:09:34.791Z,45.00
2022-09-06T12:10:34.785Z,45.00
2022-09-06T12:11:34.768Z,45.00
2022-09-06T12:12:34.759Z,45.00
2022-09-06T12:13:34.750Z,45.00
2022-09-06T12:14:34.739Z,45.00
2022-09-06T12:15:34.762Z,45.00
2022-09-06T12:16:34.720Z,50.62
2022-09-06T12:17:34.701Z,50.62
2022-09-06T12:18:34.690Z,50.62
2022-09-06T12:19:34.682Z,56.25
2022-09-06T12:20:34.675Z,56.25
2022-09-06T12:21:34.660Z,61.88
2022-09-06T12:22:34.652Z,67.50
2022-09-06T12:23:34.636Z,73.12
2022-09-06T12:24:34.628Z,73.12
2022-09-06T12:25:34.617Z,78.75
2022-09-06T12:26:34.614Z,84.38
2022-09-06T12:27:34.594Z,84.38
2022-09-06T12:28:34.589Z,84.38
2022-09-06T12:29:34.571Z,78.75
2022-09-06T12:30:34.560Z,73.12
2022-09-06T12:31:34.605Z,73.12
2022-09-06T12:32:36.978Z,67.50
2022-09-06T12:33:34.528Z,67.50
2022-09-06T12:34:34.527Z,67.50
2022-09-06T12:36:35.512Z,61.88
2022-09-06T12:37:34.483Z,67.50
2022-09-06T12:38:34.474Z,67.50
2022-09-06T12:39:34.515Z,73.12
2022-09-06T12:40:34.457Z,67.50
2022-09-06T12:41:34.442Z,67.50
2022-09-06T12:42:34.433Z,73.12
2022-09-06T12:43:34.419Z,73.12
2022-09-06T12:44:34.416Z,90.00
2022-09-06T12:45:34.397Z,95.62
2022-09-06T12:46:34.491Z,78.75
2022-09-06T12:47:34.375Z,90.00
2022-09-06T12:48:34.366Z,118.12
2022-09-06T12:49:34.353Z,140.62
2022-09-06T12:50:34.343Z,163.12
2022-09-06T12:51:34.331Z,219.38
2022-09-06T12:52:34.327Z,253.12
2022-09-06T12:53:34.310Z,196.88
2022-09-06T12:54:34.301Z,303.75
2022-09-06T12:55:34.288Z,315.00
2022-09-06T12:56:34.280Z,303.75
2022-09-06T12:57:34.268Z,303.75
2022-09-06T12:58:34.281Z,348.75
2022-09-06T12:59:34.245Z,376.88
2022-09-06T13:00:34.236Z,393.75
2022-09-06T13:01:34.423Z,433.12
2022-09-06T13:02:34.347Z,506.25
2022-09-06T13:03:34.203Z,585.00
2022-09-06T13:04:34.198Z,641.25
2022-09-06T13:05:34.179Z,590.62
2022-09-06T13:06:34.171Z,573.75
2022-09-06T13:07:34.159Z,562.50
2022-09-06T13:08:34.147Z,540.00
2022-09-06T13:09:34.138Z,579.38
2022-09-06T13:10:34.132Z,607.50
2022-09-06T13:11:34.118Z,624.38
2022-09-06T13:12:34.120Z,601.88
2022-09-06T13:13:34.093Z,376.88
2022-09-06T13:14:34.081Z,196.88
2022-09-06T13:15:34.152Z,185.62
2022-09-06T13:16:34.066Z,174.38
2022-09-06T13:17:34.077Z,163.12
2022-09-06T13:18:34.042Z,146.25
2022-09-06T13:19:34.028Z,140.62
2022-09-06T13:20:34.021Z,129.38
2022-09-06T13:21:34.011Z,118.12
2022-09-06T13:22:34.008Z,106.88
2022-09-06T13:23:33.985Z,101.25
2022-09-06T13:24:33.980Z,95.62
2022-09-06T13:25:33.963Z,84.38
2022-09-06T13:26:33.952Z,78.75